createdAt,value
2018-08-16T00:00:33.131Z,87.56
2018-08-16T00:01:37.780Z,88.28
2018-08-16T00:02:43.080Z,88.32
2018-08-16T00:03:48.941Z,87.98
2018-08-16T00:04:54.044Z,87.67
2018-08-16T00:05:58.691Z,88.33
2018-08-16T00:07:04.956Z,88.02
2018-08-16T00:08:09.588Z,87.86
2018-08-16T00:09:14.351Z,88.19
2018-08-16T00:10:21.109Z,88.29
2018-08-16T00:11:26.603Z,87.99
2018-08-16T00:12:34.340Z,87.81
2018-08-16T00:13:39.046Z,88.42
2018-08-16T00:14:44.595Z,87.93
2018-08-16T00:15:50.316Z,88.44
2018-08-16T00:16:56.311Z,88.32
2018-08-16T00:18:03.224Z,88.79
2018-08-16T00:19:08.323Z,88.98
2018-08-16T00:20:17.454Z,88.80
2018-08-16T00:21:22.925Z,89.15
2018-08-16T00:22:27.678Z,88.92
2018-08-16T00:23:34.167Z,88.96
2018-08-16T00:24:39.350Z,88.08
2018-08-16T00:25:44.007Z,88.28
2018-08-16T00:26:49.461Z,88.30
2018-08-16T00:27:54.056Z,88.80
2018-08-16T00:29:02.014Z,88.10
2018-08-16T00:30:10.299Z,88.39
2018-08-16T00:31:15.284Z,88.71
2018-08-16T00:32:21.544Z,88.51
2018-08-16T00:33:27.551Z,89.16
2018-08-16T00:34:33.267Z,89.28
2018-08-16T00:36:04.197Z,88.83
2018-08-16T00:37:11.610Z,88.33
2018-08-16T00:38:16.418Z,89.36
2018-08-16T00:39:22.643Z,88.40
2018-08-16T00:40:31.547Z,88.30
2018-08-16T00:41:36.337Z,88.94
2018-08-16T00:42:41.364Z,89.04
2018-08-16T00:43:46.253Z,89.05
2018-08-16T00:44:51.684Z,88.92
2018-08-16T00:45:57.309Z,88.11
2018-08-16T00:47:03.646Z,89.05
2018-08-16T00:48:08.669Z,89.16
2018-08-16T00:49:13.438Z,89.42
2018-08-16T00:50:19.385Z,89.30
2018-08-16T00:51:27.193Z,88.71
2018-08-16T00:52:32.738Z,89.52
2018-08-16T00:53:40.870Z,88.44
2018-08-16T00:54:47.302Z,88.89
2018-08-16T00:55:52.699Z,89.14
2018-08-16T00:56:57.676Z,89.48
2018-08-16T00:58:02.401Z,89.43
2018-08-16T00:59:07.326Z,89.20
2018-08-16T01:00:15.438Z,89.03
2018-08-16T01:01:20.444Z,88.96
2018-08-16T01:02:27.403Z,88.72
2018-08-16T01:03:32.568Z,88.97
2018-08-16T01:04:38.583Z,89.05
2018-08-16T01:05:44.372Z,89.28
2018-08-16T01:06:51.124Z,88.69
2018-08-16T01:07:56.260Z,89.55
2018-08-16T01:09:00.983Z,89.47
2018-08-16T01:10:07.762Z,88.71
2018-08-16T01:11:12.464Z,88.64
2018-08-16T01:12:17.233Z,89.04
2018-08-16T01:13:23.283Z,89.77
2018-08-16T01:14:28.381Z,89.38
2018-08-16T01:15:33.123Z,89.20
2018-08-16T01:16:37.851Z,89.80
2018-08-16T01:17:42.796Z,89.01
2018-08-16T01:18:47.597Z,89.77
2018-08-16T01:19:52.607Z,89.56
2018-08-16T01:20:58.648Z,88.79
2018-08-16T01:22:03.676Z,90.00
2018-08-16T01:23:08.705Z,88.93
2018-08-16T01:26:47.385Z,88.75
2018-08-16T01:27:52.154Z,89.26
2018-08-16T01:28:57.037Z,88.71
2018-08-16T01:30:01.827Z,88.58
2018-08-16T01:31:11.448Z,89.13
2018-08-16T01:32:16.461Z,89.48
2018-08-16T01:33:23.018Z,88.68
2018-08-16T01:34:28.421Z,88.73
2018-08-16T01:35:34.247Z,89.07
2018-08-16T01:36:38.858Z,89.41
2018-08-16T01:37:44.397Z,89.47
2018-08-16T01:38:49.435Z,88.95
2018-08-16T01:39:55.032Z,88.57
2018-08-16T01:41:00.954Z,88.34
2018-08-16T01:42:07.216Z,88.77
2018-08-16T01:43:12.807Z,88.88
2018-08-16T01:44:17.507Z,89.57
2018-08-16T01:45:23.930Z,89.21
2018-08-16T01:46:31.885Z,88.59
2018-08-16T01:47:36.524Z,89.03
2018-08-16T01:48:41.171Z,88.15
2018-08-16T01:49:46.886Z,89.29
2018-08-16T01:50:53.051Z,88.58
2018-08-16T01:51:58.303Z,89.15
2018-08-16T01:53:03.430Z,88.68
2018-08-16T01:54:08.417Z,89.10
2018-08-16T01:55:15.892Z,89.41
2018-08-16T01:56:23.391Z,88.75
2018-08-16T01:57:29.432Z,88.75
2018-08-16T01:58:34.243Z,89.60
2018-08-16T01:59:46.778Z,89.08
2018-08-16T02:00:51.880Z,88.53
2018-08-16T02:01:59.355Z,89.48
2018-08-16T02:03:09.079Z,89.13
2018-08-16T02:04:14.546Z,89.64
2018-08-16T02:05:21.567Z,88.62
2018-08-16T02:06:28.770Z,88.85
2018-08-16T02:07:35.306Z,89.20
2018-08-16T02:08:41.689Z,88.92
2018-08-16T02:09:50.099Z,88.67
2018-08-16T02:10:57.241Z,89.45
2018-08-16T02:12:04.757Z,89.07
2018-08-16T02:13:14.204Z,89.37
2018-08-16T02:14:24.552Z,89.13
2018-08-16T02:15:32.898Z,89.36
2018-08-16T02:16:41.136Z,88.47
2018-08-16T02:17:54.570Z,88.73
2018-08-16T02:19:10.433Z,88.68
2018-08-16T02:20:18.394Z,89.53
2018-08-16T02:21:26.183Z,88.90
2018-08-16T02:22:32.954Z,89.57
2018-08-16T02:23:37.890Z,89.65
2018-08-16T02:24:47.363Z,89.89
2018-08-16T02:25:53.432Z,89.87
2018-08-16T02:27:02.196Z,90.10
2018-08-16T02:28:08.790Z,89.95
2018-08-16T02:29:14.457Z,89.81
2018-08-16T02:30:21.646Z,89.72
2018-08-16T02:31:29.068Z,90.44
2018-08-16T02:32:33.902Z,90.08
2018-08-16T02:33:38.946Z,90.42
2018-08-16T02:34:45.360Z,89.92
2018-08-16T02:35:51.075Z,90.84
2018-08-16T02:36:56.077Z,90.63
2018-08-16T02:38:01.783Z,89.66
2018-08-16T02:39:08.916Z,90.80
2018-08-16T02:40:13.915Z,90.88
2018-08-16T02:41:24.460Z,90.90
2018-08-16T02:42:33.172Z,90.14
2018-08-16T02:43:39.116Z,90.85
2018-08-16T02:44:47.933Z,90.06
2018-08-16T02:45:54.124Z,90.91
2018-08-16T02:47:01.672Z,90.84
2018-08-16T02:48:14.225Z,91.06
2018-08-16T02:49:28.448Z,90.88
2018-08-16T02:50:36.794Z,90.33
2018-08-16T02:51:44.642Z,91.54
2018-08-16T02:52:54.005Z,90.83
2018-08-16T02:54:00.572Z,90.45
2018-08-16T02:55:05.674Z,91.62
2018-08-16T02:56:10.409Z,90.54
2018-08-16T02:57:15.458Z,91.15
2018-08-16T02:58:20.389Z,90.64
2018-08-16T02:59:25.280Z,91.28
2018-08-16T03:00:31.735Z,91.29
2018-08-16T03:01:36.573Z,90.72
2018-08-16T03:02:42.371Z,91.14
2018-08-16T03:03:57.744Z,90.90
2018-08-16T03:05:05.954Z,91.24
2018-08-16T03:06:10.979Z,90.16
2018-08-16T03:07:19.530Z,90.90
2018-08-16T03:08:32.193Z,90.43
2018-08-16T03:09:39.712Z,91.08
2018-08-16T03:10:47.843Z,90.38
2018-08-16T03:11:56.527Z,91.10
2018-08-16T03:13:04.467Z,91.27
2018-08-16T03:14:11.847Z,90.57
2018-08-16T03:15:17.599Z,91.52
2018-08-16T03:16:30.835Z,90.88
2018-08-16T03:17:37.536Z,90.60
2018-08-16T03:18:43.005Z,91.66
2018-08-16T03:19:48.054Z,90.70
2018-08-16T03:22:07.136Z,91.33
2018-08-16T03:23:13.805Z,91.37
2018-08-16T03:24:19.658Z,92.08
2018-08-16T03:25:25.100Z,92.23
2018-08-16T03:26:30.712Z,91.60
2018-08-16T03:27:36.227Z,91.70
2018-08-16T03:28:42.416Z,91.83
2018-08-16T03:29:47.911Z,92.19
2018-08-16T03:30:53.151Z,91.47
2018-08-16T03:31:59.297Z,91.69
2018-08-16T03:33:04.320Z,92.30
2018-08-16T03:34:10.960Z,91.84
2018-08-16T03:35:16.876Z,92.31
2018-08-16T03:36:22.959Z,92.09
2018-08-16T03:37:28.188Z,92.18
2018-08-16T03:38:35.079Z,92.21
2018-08-16T03:39:40.200Z,91.99
2018-08-16T03:40:45.478Z,93.37
2018-08-16T03:41:50.947Z,93.19
2018-08-16T03:42:56.683Z,93.46
2018-08-16T03:44:01.833Z,93.55
2018-08-16T03:45:07.660Z,93.66
2018-08-16T03:46:12.997Z,93.83
2018-08-16T03:47:23.389Z,93.82
2018-08-16T03:48:29.985Z,94.23
2018-08-16T03:49:35.434Z,94.04
2018-08-16T03:50:40.448Z,94.10
2018-08-16T03:51:45.820Z,94.24
2018-08-16T03:52:51.236Z,94.46
2018-08-16T03:53:57.340Z,94.11
2018-08-16T03:55:02.229Z,93.78
2018-08-16T03:56:07.469Z,94.29
2018-08-16T03:57:12.637Z,94.21
2018-08-16T03:58:18.133Z,93.94
2018-08-16T03:59:23.112Z,94.34
2018-08-16T04:00:28.238Z,94.45
2018-08-16T04:01:33.531Z,94.47
2018-08-16T04:02:38.506Z,94.64
2018-08-16T04:03:43.211Z,94.04
2018-08-16T04:04:47.857Z,93.92
2018-08-16T04:05:53.213Z,93.73
2018-08-16T04:06:58.584Z,94.42
2018-08-16T04:08:03.346Z,94.60
2018-08-16T04:09:09.013Z,94.24
2018-08-16T04:10:14.681Z,94.24
2018-08-16T04:11:20.851Z,94.47
2018-08-16T04:12:25.876Z,94.66
2018-08-16T04:13:33.848Z,94.32
2018-08-16T04:14:40.042Z,94.81
2018-08-16T04:15:44.896Z,94.91
2018-08-16T04:16:49.826Z,94.94
2018-08-16T04:17:55.021Z,94.82
2018-08-16T04:19:02.333Z,94.82
2018-08-16T04:20:07.787Z,94.77
2018-08-16T04:21:13.243Z,94.93
2018-08-16T04:22:18.023Z,94.74
2018-08-16T04:23:22.827Z,95.15
2018-08-16T04:24:28.013Z,94.68
2018-08-16T04:25:34.321Z,94.79
2018-08-16T04:26:39.683Z,94.89
2018-08-16T04:27:44.760Z,94.78
2018-08-16T04:30:10.179Z,94.14
2018-08-16T04:31:15.297Z,94.14
2018-08-16T04:32:21.468Z,94.81
2018-08-16T04:33:27.413Z,94.31
2018-08-16T04:34:32.215Z,94.20
2018-08-16T04:35:39.448Z,93.93
2018-08-16T04:36:46.000Z,93.94
2018-08-16T04:37:51.387Z,94.09
2018-08-16T04:38:56.716Z,94.52
2018-08-16T04:40:03.969Z,93.81
2018-08-16T04:41:09.832Z,94.14
2018-08-16T04:42:14.957Z,94.55
2018-08-16T04:43:21.355Z,93.51
2018-08-16T04:44:27.567Z,93.53
2018-08-16T04:45:35.447Z,93.88
2018-08-16T04:46:52.514Z,93.80
2018-08-16T04:47:57.640Z,93.69
2018-08-16T04:49:03.503Z,93.70
2018-08-16T04:50:14.600Z,94.12
2018-08-16T04:51:19.973Z,94.20
2018-08-16T04:52:26.554Z,93.12
2018-08-16T04:53:47.761Z,93.34
2018-08-16T04:54:57.052Z,94.22
2018-08-16T04:56:02.329Z,93.74
2018-08-16T04:57:11.966Z,94.07
2018-08-16T04:58:20.951Z,93.65
2018-08-16T04:59:27.597Z,93.56
2018-08-16T05:01:51.512Z,95.11
2018-08-16T05:03:02.895Z,94.55
2018-08-16T05:04:07.976Z,95.16
2018-08-16T05:05:12.880Z,95.49
2018-08-16T05:06:18.437Z,94.29
2018-08-16T05:07:25.877Z,95.18
2018-08-16T05:08:36.481Z,94.73
2018-08-16T05:09:44.376Z,94.67
2018-08-16T05:10:49.591Z,93.59
2018-08-16T05:11:59.239Z,93.43
2018-08-16T05:13:12.198Z,93.39
2018-08-16T05:14:25.028Z,93.36
2018-08-16T05:15:37.411Z,93.34
2018-08-16T05:16:45.765Z,92.58
2018-08-16T05:17:52.030Z,91.55
2018-08-16T05:20:16.517Z,91.47
2018-08-16T05:21:22.257Z,90.58
2018-08-16T05:22:27.535Z,90.31
2018-08-16T05:23:34.141Z,89.68
2018-08-16T05:24:41.182Z,89.34
2018-08-16T05:25:46.285Z,90.35
2018-08-16T05:26:51.020Z,89.61
2018-08-16T05:27:55.803Z,90.51
2018-08-16T05:29:00.572Z,90.26
2018-08-16T05:30:07.668Z,90.31
2018-08-16T05:31:12.440Z,90.14
2018-08-16T05:32:17.992Z,91.17
2018-08-16T05:33:23.853Z,90.63
2018-08-16T05:34:29.006Z,90.36
2018-08-16T05:35:41.433Z,90.40
2018-08-16T05:36:50.676Z,90.01
2018-08-16T05:37:57.925Z,90.70
2018-08-16T05:39:06.023Z,90.05
2018-08-16T05:40:13.240Z,91.33
2018-08-16T05:41:18.987Z,90.84
2018-08-16T05:42:26.327Z,90.68
2018-08-16T05:43:31.848Z,90.13
2018-08-16T05:44:37.305Z,90.24
2018-08-16T05:45:44.263Z,90.75
2018-08-16T05:46:49.631Z,90.65
2018-08-16T05:47:55.669Z,90.06
2018-08-16T05:49:02.036Z,90.52
2018-08-16T05:50:08.317Z,89.41
2018-08-16T05:51:13.771Z,89.61
2018-08-16T05:52:19.778Z,89.13
2018-08-16T05:53:27.250Z,90.06
2018-08-16T05:54:35.096Z,90.20
2018-08-16T05:55:40.983Z,90.11
2018-08-16T05:56:47.550Z,90.01
2018-08-16T05:57:53.785Z,89.00
2018-08-16T05:58:59.016Z,89.50
2018-08-16T06:00:04.041Z,89.91
2018-08-16T06:01:19.790Z,89.53
2018-08-16T06:02:31.357Z,88.66
2018-08-16T12:31:38.438Z,35.26
2018-08-16T12:32:46.732Z,34.77
2018-08-16T12:33:54.028Z,34.62
2018-08-16T12:34:59.449Z,34.77
2018-08-16T12:36:06.332Z,34.21
2018-08-16T12:37:12.322Z,34.28
2018-08-16T12:38:19.348Z,34.30
2018-08-16T12:39:24.466Z,34.73
2018-08-16T12:40:30.102Z,34.70
2018-08-16T12:41:36.932Z,34.42
2018-08-16T12:42:43.266Z,34.64
2018-08-16T12:43:47.870Z,34.92
2018-08-16T12:44:54.264Z,35.12
2018-08-16T12:46:00.482Z,34.77
2018-08-16T12:47:06.372Z,35.25
2018-08-16T12:48:12.102Z,35.35
2018-08-16T12:49:17.667Z,34.84
2018-08-16T12:50:24.850Z,34.96
2018-08-16T12:51:33.699Z,35.09
2018-08-16T12:52:45.634Z,35.02
2018-08-16T12:53:54.146Z,33.79
2018-08-16T12:55:02.189Z,33.23
2018-08-16T12:56:07.566Z,33.37
2018-08-16T12:57:12.798Z,33.11
2018-08-16T12:58:18.344Z,33.11
2018-08-16T12:59:31.420Z,33.79
2018-08-16T13:00:37.750Z,33.46
2018-08-16T13:01:43.865Z,33.32
2018-08-16T13:02:50.543Z,33.19
2018-08-16T13:04:10.623Z,32.52
2018-08-16T13:05:19.265Z,32.72
2018-08-16T13:06:35.533Z,32.66
2018-08-16T13:07:45.589Z,32.07
2018-08-16T13:08:57.281Z,31.71
2018-08-16T13:10:03.729Z,32.89
2018-08-16T13:11:09.273Z,32.35
2018-08-16T13:12:16.048Z,33.37
2018-08-16T13:13:21.460Z,33.44
2018-08-16T13:14:27.292Z,32.87
2018-08-16T13:15:32.538Z,32.16
2018-08-16T13:16:37.590Z,30.77
2018-08-16T13:17:44.947Z,30.18
2018-08-16T13:18:50.647Z,29.37
2018-08-16T13:19:57.419Z,28.68
2018-08-16T13:21:05.263Z,29.12
2018-08-16T13:22:11.834Z,29.12
2018-08-16T13:23:17.742Z,28.85
2018-08-16T13:24:23.993Z,26.98
2018-08-16T13:25:29.657Z,26.69
2018-08-16T13:26:35.981Z,27.01
2018-08-16T13:27:42.255Z,27.51
2018-08-16T13:28:49.278Z,28.12
2018-08-16T13:29:55.555Z,27.70
2018-08-16T13:31:01.095Z,27.52
2018-08-16T13:32:05.989Z,27.34
2018-08-16T13:33:11.097Z,25.98
2018-08-16T13:34:18.094Z,26.83
2018-08-16T13:35:27.684Z,26.01
2018-08-16T13:36:34.741Z,26.99
2018-08-16T13:37:39.611Z,27.55
2018-08-16T13:38:45.643Z,27.44
2018-08-16T13:39:52.411Z,27.57
2018-08-16T13:40:59.581Z,27.85
2018-08-16T13:42:06.292Z,28.60
2018-08-16T13:43:11.093Z,28.53
2018-08-16T13:44:18.111Z,28.97
2018-08-16T13:45:23.872Z,28.85
2018-08-16T13:46:30.276Z,28.80
2018-08-16T13:47:35.051Z,29.12
2018-08-16T13:48:42.154Z,29.66
2018-08-16T13:51:02.936Z,30.12
2018-08-16T15:39:34.070Z,26.53
2018-08-16T15:40:40.123Z,26.55
2018-08-16T15:41:45.876Z,26.54
2018-08-16T15:42:52.134Z,26.90
2018-08-16T15:43:58.116Z,27.18
2018-08-16T15:45:03.593Z,26.53
2018-08-16T15:46:08.443Z,26.37
2018-08-16T15:47:13.807Z,26.42
2018-08-16T15:48:18.564Z,26.62
2018-08-16T15:49:25.002Z,26.11
2018-08-16T15:50:30.578Z,26.34
2018-08-16T15:51:36.664Z,25.86
2018-08-16T15:52:41.501Z,26.55
2018-08-16T15:53:46.981Z,26.05
2018-08-16T15:54:53.350Z,25.66
2018-08-16T15:55:59.182Z,25.14
2018-08-16T15:57:04.027Z,24.81
2018-08-16T15:58:10.198Z,24.25
2018-08-16T15:59:14.904Z,23.60
2018-08-16T16:00:19.837Z,23.71
2018-08-16T16:01:24.611Z,23.46
2018-08-16T16:02:29.400Z,23.76
2018-08-16T16:03:34.139Z,23.41
2018-08-16T16:04:39.362Z,24.26
2018-08-16T16:05:44.269Z,25.43
2018-08-16T16:06:49.011Z,26.46
2018-08-16T16:07:54.520Z,26.44
2018-08-16T16:09:00.490Z,26.01
2018-08-16T16:10:10.270Z,26.25
2018-08-16T16:11:20.014Z,26.27
2018-08-16T16:12:25.435Z,26.13
2018-08-16T16:13:31.426Z,25.95
2018-08-16T16:14:37.536Z,26.23
2018-08-16T16:15:45.216Z,26.40
2018-08-16T16:16:53.236Z,26.25
2018-08-16T16:18:04.150Z,26.26
2018-08-16T16:19:12.054Z,26.09
2018-08-16T16:20:22.166Z,25.55
2018-08-16T18:48:32.511Z,36.79
2018-08-16T18:49:39.977Z,37.04
2018-08-16T18:50:46.707Z,37.18
2018-08-16T18:51:52.447Z,37.27
2018-08-16T18:52:58.031Z,37.34
2018-08-16T18:54:07.330Z,37.60
2018-08-16T18:55:14.442Z,38.20
2018-08-16T18:56:20.562Z,38.64
2018-08-16T18:57:25.568Z,38.96
2018-08-16T18:58:31.530Z,38.97
2018-08-16T18:59:39.127Z,39.54
2018-08-16T19:00:46.638Z,39.67
2018-08-16T19:01:53.795Z,40.05
2018-08-16T19:03:01.029Z,39.88
2018-08-16T19:04:05.829Z,40.06
2018-08-16T19:05:10.948Z,40.00
2018-08-16T19:06:18.707Z,40.79
2018-08-16T19:07:24.944Z,41.04
2018-08-16T19:08:30.530Z,40.88
2018-08-16T19:09:38.392Z,41.70
2018-08-16T19:10:44.282Z,41.68
2018-08-16T19:11:50.758Z,42.11
2018-08-16T19:12:55.812Z,42.11
2018-08-16T19:14:02.039Z,42.84
2018-08-16T19:15:07.619Z,42.66
2018-08-16T19:16:15.327Z,42.79
2018-08-16T19:17:22.934Z,43.38
2018-08-16T19:18:27.757Z,43.54
2018-08-16T19:19:32.546Z,43.68
2018-08-16T19:20:39.558Z,43.80
2018-08-16T19:21:45.620Z,43.59
2018-08-16T19:22:51.872Z,44.27
2018-08-16T19:23:58.644Z,44.23
2018-08-16T19:25:05.349Z,43.99
2018-08-16T19:26:13.767Z,43.79
2018-08-16T19:27:19.303Z,44.09
2018-08-16T19:28:25.075Z,44.77
2018-08-16T19:29:39.150Z,44.72
2018-08-16T19:30:44.588Z,45.12
2018-08-16T19:31:51.222Z,44.88
2018-08-16T19:32:57.280Z,45.54
2018-08-16T19:34:03.099Z,45.24
2018-08-16T19:35:08.612Z,45.27
2018-08-16T19:36:15.883Z,46.26
2018-08-16T19:37:22.172Z,46.32
2018-08-16T19:38:28.400Z,46.13
2018-08-16T19:39:34.687Z,46.68
2018-08-16T19:40:41.794Z,46.87
2018-08-16T19:41:47.365Z,46.98
2018-08-16T19:42:52.520Z,47.07
2018-08-16T19:43:57.298Z,46.85
2018-08-16T19:45:02.306Z,47.26
2018-08-16T19:46:07.669Z,47.39
2018-08-16T19:47:22.296Z,47.16
2018-08-16T19:48:28.267Z,47.32
2018-08-16T19:49:34.069Z,46.87
2018-08-16T19:50:46.781Z,47.17
2018-08-16T19:51:51.542Z,46.85
2018-08-16T19:53:12.677Z,47.06
2018-08-16T19:54:19.110Z,47.46
2018-08-16T19:55:24.059Z,47.39
2018-08-16T19:56:30.835Z,47.79
2018-08-16T19:57:38.686Z,48.09
2018-08-16T19:58:44.791Z,47.82
2018-08-16T19:59:51.390Z,48.20
2018-08-16T20:00:57.638Z,48.09
2018-08-16T20:02:02.850Z,48.74
2018-08-16T20:03:09.315Z,48.79
2018-08-16T20:04:16.193Z,48.67
2018-08-16T20:05:21.485Z,48.73
2018-08-16T20:06:26.522Z,48.49
2018-08-16T20:07:34.327Z,48.53
2018-08-16T20:08:39.584Z,49.14
2018-08-16T20:09:48.821Z,48.90
2018-08-16T20:10:57.901Z,48.77
2018-08-16T20:12:06.569Z,48.46
2018-08-16T20:13:11.464Z,48.02
2018-08-16T20:14:16.326Z,47.99
2018-08-16T20:16:40.811Z,48.18
2018-08-16T20:17:46.057Z,48.31
2018-08-16T20:18:51.465Z,48.51
2018-08-16T20:19:57.762Z,48.70
2018-08-16T20:21:04.813Z,48.71
2018-08-16T20:22:18.202Z,48.80
2018-08-16T20:23:28.020Z,48.85
2018-08-16T20:24:34.824Z,49.31
2018-08-16T20:25:41.401Z,49.08
2018-08-16T20:26:48.133Z,49.21
2018-08-16T20:27:56.754Z,49.29
2018-08-16T20:29:02.490Z,49.35
2018-08-16T20:30:08.869Z,49.38
2018-08-16T20:31:19.326Z,49.89
2018-08-16T20:32:25.657Z,50.01
2018-08-16T20:33:37.096Z,49.98
2018-08-16T20:34:43.351Z,50.17
2018-08-16T20:35:48.150Z,50.55
2018-08-16T20:36:54.084Z,50.73
2018-08-16T20:37:59.130Z,50.64
2018-08-16T20:39:05.347Z,50.62
2018-08-16T20:40:10.374Z,50.98
2018-08-16T20:41:16.101Z,51.33
2018-08-16T20:42:24.435Z,51.47
2018-08-16T20:43:29.320Z,51.52
2018-08-16T20:44:35.256Z,51.42
2018-08-16T20:45:39.906Z,51.35
2018-08-16T20:46:48.086Z,60.71
2018-08-16T20:47:55.375Z,51.08
2018-08-16T20:49:02.073Z,51.36
2018-08-16T20:50:12.516Z,100.00
2018-08-16T20:51:20.918Z,51.15
2018-08-16T20:52:31.279Z,51.31
2018-08-16T20:53:37.468Z,51.30
2018-08-16T20:54:45.139Z,50.94
2018-08-16T20:55:50.091Z,51.75
2018-08-16T20:56:55.258Z,51.76
2018-08-16T20:58:00.950Z,51.57
2018-08-16T20:59:07.721Z,51.92
2018-08-16T21:00:13.180Z,51.89
2018-08-16T21:01:19.115Z,51.80
2018-08-16T21:02:24.578Z,100.00
2018-08-16T21:03:30.244Z,100.00
2018-08-16T21:04:53.630Z,100.00
2018-08-16T21:06:22.454Z,52.12
2018-08-16T21:07:28.042Z,100.00
2018-08-16T21:08:33.013Z,51.93
2018-08-16T21:09:38.984Z,52.35
2018-08-16T21:10:49.288Z,52.52
2018-08-16T21:11:56.173Z,52.88
2018-08-16T21:13:03.867Z,100.00
2018-08-16T21:14:11.092Z,53.17
2018-08-16T21:15:21.054Z,53.48
2018-08-16T21:16:30.415Z,100.00
2018-08-16T21:17:43.177Z,53.69
2018-08-16T21:18:47.957Z,53.72
2018-08-16T21:19:52.854Z,53.99
2018-08-16T21:20:58.629Z,53.99
2018-08-16T21:22:03.837Z,53.84
2018-08-16T21:23:11.506Z,53.90
2018-08-16T21:24:17.734Z,53.90
2018-08-16T21:25:24.398Z,53.62
2018-08-16T21:26:29.193Z,53.79
2018-08-16T21:27:35.024Z,53.43
2018-08-16T21:28:40.982Z,54.00
2018-08-16T21:29:50.397Z,54.09
2018-08-16T21:30:58.361Z,60.71
2018-08-16T21:32:08.645Z,53.79
2018-08-16T21:33:13.483Z,54.14
2018-08-16T21:34:20.765Z,54.00
2018-08-16T21:35:27.284Z,22.55
2018-08-16T21:36:33.412Z,53.69
2018-08-16T21:37:38.175Z,54.04
2018-08-16T21:38:44.688Z,100.00
2018-08-16T21:39:51.494Z,54.13
2018-08-16T21:40:58.385Z,54.30
2018-08-16T21:42:03.952Z,54.00
2018-08-16T21:43:09.509Z,54.03
2018-08-16T21:44:15.716Z,54.37
2018-08-16T21:45:21.264Z,54.38
2018-08-16T21:46:27.929Z,53.89
2018-08-16T21:47:32.736Z,53.85
2018-08-16T21:48:38.026Z,100.00
2018-08-16T21:49:43.331Z,53.90
2018-08-16T21:50:48.061Z,54.03
2018-08-16T21:51:52.714Z,53.85
2018-08-16T21:52:58.348Z,54.37
2018-08-16T21:54:03.256Z,54.58
2018-08-16T21:55:08.961Z,54.73
2018-08-16T21:56:14.085Z,54.67
2018-08-16T21:57:18.778Z,55.00
2018-08-16T21:58:23.946Z,55.02
2018-08-16T21:59:29.594Z,55.28
2018-08-16T22:00:59.561Z,56.02
2018-08-16T22:02:07.879Z,56.44
2018-08-16T22:03:12.830Z,56.38
2018-08-16T22:04:21.163Z,56.54
2018-08-16T22:05:27.182Z,56.70
2018-08-16T22:06:36.979Z,57.21
2018-08-16T22:08:13.440Z,56.99
2018-08-16T22:09:20.971Z,57.12
2018-08-16T22:10:28.805Z,56.94
2018-08-16T22:11:33.611Z,57.30
2018-08-16T22:12:38.475Z,57.64
2018-08-16T22:13:44.821Z,57.34
2018-08-16T22:14:49.921Z,57.71
2018-08-16T22:15:56.388Z,57.85
2018-08-16T22:17:01.659Z,58.68
2018-08-16T22:18:09.276Z,58.33
2018-08-16T22:19:14.539Z,58.63
2018-08-16T22:20:21.479Z,59.08
2018-08-16T22:21:28.248Z,59.56
2018-08-16T22:22:32.991Z,59.73
2018-08-16T22:23:42.972Z,60.07
2018-08-16T22:24:49.841Z,60.42
2018-08-16T22:25:54.683Z,60.61
2018-08-16T22:27:00.544Z,60.18
2018-08-16T22:28:06.648Z,60.27
2018-08-16T22:29:11.451Z,60.57
2018-08-16T22:30:17.718Z,60.05
2018-08-16T22:31:24.921Z,59.86
2018-08-16T22:32:30.756Z,59.68
2018-08-16T22:33:38.671Z,60.08
2018-08-16T22:34:45.476Z,59.79
2018-08-16T22:35:52.022Z,59.63
2018-08-16T22:37:01.413Z,100.00
2018-08-16T22:38:06.671Z,60.08
2018-08-16T22:39:13.512Z,60.44
2018-08-16T22:40:18.650Z,60.58
2018-08-16T22:41:24.456Z,61.82
2018-08-16T22:42:29.790Z,62.21
2018-08-16T22:43:35.652Z,61.44
2018-08-16T22:44:40.367Z,62.28
2018-08-16T22:45:45.124Z,61.81
2018-08-16T22:46:49.821Z,62.12
2018-08-16T22:47:55.501Z,62.03
2018-08-16T22:49:00.130Z,62.44
2018-08-16T22:50:04.892Z,62.79
2018-08-16T22:51:10.312Z,63.28
2018-08-16T22:52:16.031Z,62.82
2018-08-16T22:53:22.252Z,62.49
2018-08-16T22:54:28.087Z,62.23
2018-08-16T22:55:33.243Z,62.24
2018-08-16T22:56:38.811Z,61.73
2018-08-16T22:57:43.670Z,62.04
2018-08-16T22:58:49.081Z,61.62
2018-08-16T22:59:54.323Z,61.55
2018-08-16T23:00:59.654Z,62.23
2018-08-16T23:02:04.664Z,62.80
2018-08-16T23:03:09.320Z,63.43
2018-08-16T23:04:14.058Z,63.89
2018-08-16T23:05:20.996Z,63.43
2018-08-16T23:06:26.467Z,63.25
2018-08-16T23:07:32.345Z,63.12
2018-08-16T23:08:37.149Z,62.81
2018-08-16T23:09:41.951Z,62.83
2018-08-16T23:10:46.613Z,62.99
2018-08-16T23:11:52.448Z,63.31
2018-08-16T23:12:57.186Z,63.48
2018-08-16T23:14:02.465Z,63.63
2018-08-16T23:15:08.578Z,63.69
2018-08-16T23:16:13.217Z,63.42
2018-08-16T23:17:21.303Z,62.94
2018-08-16T23:18:25.986Z,62.90
2018-08-16T23:19:31.552Z,63.22
2018-08-16T23:20:36.534Z,64.16
2018-08-16T23:21:41.195Z,64.54
2018-08-16T23:22:46.041Z,64.95
2018-08-16T23:23:53.095Z,64.40
2018-08-16T23:24:58.954Z,64.65
2018-08-16T23:26:04.906Z,64.08
2018-08-16T23:27:09.700Z,64.42
2018-08-16T23:28:14.674Z,64.24
2018-08-16T23:29:20.307Z,64.90
2018-08-16T23:30:25.872Z,64.87
2018-08-16T23:31:33.010Z,64.55
2018-08-16T23:32:42.548Z,64.79
2018-08-16T23:33:48.075Z,63.50
2018-08-16T23:34:54.414Z,63.60
2018-08-16T23:36:02.404Z,64.47
2018-08-16T23:37:09.041Z,63.73
2018-08-16T23:38:15.059Z,64.04
2018-08-16T23:40:35.584Z,63.51
2018-08-16T23:41:40.324Z,63.82
2018-08-16T23:42:45.904Z,39.36
2018-08-16T23:43:52.017Z,63.55
2018-08-16T23:44:57.607Z,63.25
2018-08-16T23:46:02.467Z,62.95
2018-08-16T23:47:07.920Z,63.75
2018-08-16T23:48:18.099Z,64.50
2018-08-16T23:49:23.289Z,64.47
2018-08-16T23:50:29.702Z,64.97
2018-08-16T23:51:35.468Z,65.46
2018-08-16T23:52:41.037Z,65.61
2018-08-16T23:53:46.550Z,66.34
2018-08-16T23:54:51.742Z,66.52
2018-08-16T23:55:57.051Z,66.46
2018-08-16T23:57:01.747Z,66.48
2018-08-16T23:58:07.528Z,66.24
2018-08-16T23:59:13.478Z,66.35
